Time;durP1;ratioP1;P1;durP2;ratioP2;P2;SDS_P1;SDS_P2;PMS_P1;PMS_P2;Temp;Humidity;BMP_temperature;BMP_pressure;BME280_temperature;BME280_humidity;BME280_pressure;Samples;Min_cycle;Max_cycle;Signal;HPM_P1;HPM_P2
2021/01/27 00:02:18;;;;;;;29.02;14.55;;;;;;;;;;5009810;23;20043;-65
2021/01/27 00:04:44;;;;;;;34.53;17.10;;;;;;;;;;5035182;28;20467;-66
2021/01/27 00:07:10;;;;;;;29.83;14.55;;;;;;;;;;5035823;28;20090;-65
2021/01/27 00:09:36;;;;;;;36.78;16.15;;;;;;;;;;5034633;28;20436;-65
2021/01/27 00:12:02;;;;;;;28.50;15.02;;;;;;;;;;5015059;28;20029;-65
2021/01/27 00:14:28;;;;;;;34.72;15.32;;;;;;;;;;5014543;28;20049;-65
2021/01/27 00:16:55;;;;;;;31.17;14.63;;;;;;;;;;5014382;28;20030;-65
2021/01/27 00:19:21;;;;;;;27.65;12.98;;;;;;;;;;4996347;28;20061;-66
2021/01/27 00:21:47;;;;;;;28.55;14.77;;;;;;;;;;4996984;28;20065;-64
2021/01/27 00:24:13;;;;;;;30.33;14.65;;;;;;;;;;4996417;28;20482;-65
2021/01/27 00:26:39;;;;;;;27.42;13.40;;;;;;;;;;4997133;28;20040;-65
2021/01/27 00:29:05;;;;;;;29.38;13.57;;;;;;;;;;5013725;28;20335;-66
2021/01/27 00:31:31;;;;;;;28.25;14.00;;;;;;;;;;5014817;28;20026;-65
2021/01/27 00:33:57;;;;;;;29.13;13.88;;;;;;;;;;4996839;28;20394;-65
2021/01/27 00:36:23;;;;;;;25.83;11.23;;;;;;;;;;4996274;28;20121;-66
2021/01/27 00:38:49;;;;;;;24.85;12.57;;;;;;;;;;4995661;28;20022;-65
2021/01/27 00:41:15;;;;;;;25.00;11.45;;;;;;;;;;5014235;28;20485;-66
2021/01/27 00:43:42;;;;;;;26.60;11.73;;;;;;;;;;5013541;28;20041;-66
2021/01/27 00:46:08;;;;;;;23.45;10.35;;;;;;;;;;5013908;28;20050;-65
2021/01/27 00:48:34;;;;;;;25.42;10.57;;;;;;;;;;4995021;28;20389;-65
2021/01/27 00:51:00;;;;;;;25.02;10.60;;;;;;;;;;5013774;28;20025;-65
2021/01/27 00:53:26;;;;;;;25.23;10.25;;;;;;;;;;4995720;28;20083;-65
2021/01/27 00:55:52;;;;;;;23.88;10.43;;;;;;;;;;5013385;28;20065;-66
2021/01/27 00:58:18;;;;;;;23.75;10.85;;;;;;;;;;4994932;28;20045;-64
2021/01/27 01:00:44;;;;;;;22.48;9.05;;;;;;;;;;4994921;28;20057;-66
2021/01/27 01:03:11;;;;;;;26.05;9.35;;;;;;;;;;5013137;28;20026;-65
2021/01/27 01:05:42;;;;;;;22.40;9.70;;;;;;;;;;4995485;28;20054;-65
2021/01/27 01:08:10;;;;;;;20.75;8.82;;;;;;;;;;4994981;28;20032;-64
2021/01/27 01:10:46;;;;;;;21.17;8.98;;;;;;;;;;4994734;28;20030;-64
2021/01/27 01:13:15;;;;;;;25.88;9.35;;;;;;;;;;5012929;28;20034;-64
2021/01/27 01:15:41;;;;;;;23.88;9.60;;;;;;;;;;5013129;28;20105;-64
2021/01/27 01:18:07;;;;;;;18.83;8.45;;;;;;;;;;4994844;28;20126;-65
2021/01/27 01:20:33;;;;;;;20.63;8.77;;;;;;;;;;4320175;28;10000760;-65
2021/01/27 01:23:00;;;;;;;20.90;8.57;;;;;;;;;;4993513;28;20540;-65
2021/01/27 01:25:27;;;;;;;21.33;9.20;;;;;;;;;;5012259;28;20026;-64
2021/01/27 01:27:53;;;;;;;22.92;9.05;;;;;;;;;;4995069;28;20120;-66
2021/01/27 01:30:24;;;;;;;22.20;8.15;;;;;;;;;;4995101;28;20410;-65
2021/01/27 01:32:51;;;;;;;20.25;8.45;;;;;;;;;;5013037;28;20481;-65
2021/01/27 01:35:18;;;;;;;24.58;8.48;;;;;;;;;;5013258;28;20044;-65
2021/01/27 01:37:44;;;;;;;21.67;9.82;;;;;;;;;;5013037;28;20029;-65
2021/01/27 01:40:12;;;;;;;24.00;9.00;;;;;;;;;;4995131;28;20071;-65
2021/01/27 01:42:38;;;;;;;22.75;8.60;;;;;;;;;;4995612;28;20030;-65
2021/01/27 01:45:08;;;;;;;21.45;9.05;;;;;;;;;;4995251;28;20099;-65
2021/01/27 01:47:34;;;;;;;18.85;7.70;;;;;;;;;;5012747;28;20063;-65
2021/01/27 01:50:00;;;;;;;20.73;8.00;;;;;;;;;;5012384;28;20549;-65
2021/01/27 01:52:26;;;;;;;20.90;7.18;;;;;;;;;;4995319;28;20108;-65
2021/01/27 01:54:55;;;;;;;19.05;7.13;;;;;;;;;;5012606;28;20037;-65
2021/01/27 01:57:28;;;;;;;20.00;7.25;;;;;;;;;;4995154;28;20028;-65
2021/01/27 01:59:56;;;;;;;19.92;7.40;;;;;;;;;;5012207;28;20105;-64
2021/01/27 02:02:23;;;;;;;18.90;7.47;;;;;;;;;;4994960;28;20493;-65
2021/01/27 02:04:51;;;;;;;19.88;7.70;;;;;;;;;;4995290;28;20103;-66
2021/01/27 02:07:18;;;;;;;19.20;7.20;;;;;;;;;;5012730;28;20409;-66
2021/01/27 02:09:44;;;;;;;20.58;7.53;;;;;;;;;;4993992;28;20030;-66
2021/01/27 02:12:28;;;;;;;19.45;7.28;;;;;;;;;;5012250;28;20041;-65
2021/01/27 02:14:57;;;;;;;20.85;7.30;;;;;;;;;;4995126;28;20400;-66
2021/01/27 02:17:28;;;;;;;21.23;7.65;;;;;;;;;;4994962;28;20026;-66
2021/01/27 02:20:13;;;;;;;17.77;6.88;;;;;;;;;;4994324;28;20025;-66
2021/01/27 02:22:42;;;;;;;19.35;6.75;;;;;;;;;;5012640;28;20050;-65
2021/01/27 02:25:21;;;;;;;17.17;6.55;;;;;;;;;;5012880;28;20393;-66
2021/01/27 02:27:51;;;;;;;20.00;6.40;;;;;;;;;;4994690;28;20030;-66
2021/01/27 02:30:22;;;;;;;20.48;7.13;;;;;;;;;;5012008;28;20029;-65
2021/01/27 02:32:48;;;;;;;17.02;6.32;;;;;;;;;;5012191;28;20508;-66
2021/01/27 02:35:18;;;;;;;17.05;6.53;;;;;;;;;;5012139;28;20041;-66
2021/01/27 02:37:50;;;;;;;23.50;7.13;;;;;;;;;;5011949;28;20056;-66
2021/01/27 02:40:21;;;;;;;25.45;7.03;;;;;;;;;;5011801;28;20022;-64
2021/01/27 02:42:54;;;;;;;16.05;5.88;;;;;;;;;;4994529;28;20049;-65
2021/01/27 02:45:23;;;;;;;17.13;6.70;;;;;;;;;;5012212;28;20298;-65
2021/01/27 02:47:48;;;;;;;;;;;;;;;;;;4994753;28;20025;-65
2021/01/27 02:50:17;;;;;;;18.67;7.22;;;;;;;;;;5011528;28;20262;-65
2021/01/27 02:52:50;;;;;;;18.40;5.85;;;;;;;;;;4994272;28;20041;-65
2021/01/27 02:55:20;;;;;;;16.75;6.07;;;;;;;;;;4994365;28;20026;-65
2021/01/27 02:58:05;;;;;;;17.48;6.68;;;;;;;;;;5011815;28;20018;-64
2021/01/27 03:00:33;;;;;;;18.05;5.97;;;;;;;;;;5011524;28;20101;-65
2021/01/27 03:03:02;;;;;;;16.95;5.45;;;;;;;;;;5011950;28;20080;-65
2021/01/27 03:05:30;;;;;;;16.60;5.78;;;;;;;;;;5012426;28;20038;-64
2021/01/27 03:08:00;;;;;;;17.00;6.10;;;;;;;;;;4994103;28;20439;-65
2021/01/27 03:10:45;;;;;;;18.83;5.65;;;;;;;;;;5011514;28;20022;-65
2021/01/27 03:13:11;;;;;;;16.98;5.68;;;;;;;;;;5011885;28;20360;-65
2021/01/27 03:15:38;;;;;;;16.65;5.75;;;;;;;;;;5011997;28;20030;-65
2021/01/27 03:18:06;;;;;;;16.58;6.15;;;;;;;;;;4994119;28;20108;-65
2021/01/27 03:20:37;;;;;;;19.85;5.97;;;;;;;;;;5011526;28;20497;-65
2021/01/27 03:23:06;;;;;;;16.33;5.85;;;;;;;;;;5011632;28;20072;-66
2021/01/27 03:25:37;;;;;;;16.27;5.50;;;;;;;;;;5015637;28;20057;-65
2021/01/27 03:28:03;;;;;;;16.45;4.90;;;;;;;;;;5015461;28;20030;-66
2021/01/27 03:30:30;;;;;;;16.90;5.65;;;;;;;;;;4997909;28;20117;-66
2021/01/27 03:33:02;;;;;;;18.17;5.53;;;;;;;;;;5015392;28;20037;-66
2021/01/27 03:35:28;;;;;;;16.30;5.60;;;;;;;;;;4996931;28;20108;-66
2021/01/27 03:38:01;;;;;;;15.95;5.85;;;;;;;;;;5014043;28;20542;-66
2021/01/27 03:40:28;;;;;;;19.17;6.75;;;;;;;;;;5013168;28;20029;-66
2021/01/27 03:43:07;;;;;;;17.17;5.88;;;;;;;;;;4997310;28;20440;-66
2021/01/27 03:45:36;;;;;;;18.08;5.35;;;;;;;;;;4997667;28;20057;-66
2021/01/27 03:48:15;;;;;;;17.35;5.75;;;;;;;;;;5015038;28;20030;-65
2021/01/27 03:50:41;;;;;;;17.08;5.30;;;;;;;;;;5014759;28;20029;-66
2021/01/27 03:53:10;;;;;;;15.55;4.95;;;;;;;;;;5014894;28;20026;-64
2021/01/27 03:55:48;;;;;;;14.68;5.18;;;;;;;;;;4997534;28;20474;-65
2021/01/27 03:58:32;;;;;;;16.02;5.50;;;;;;;;;;5014765;28;20034;-64
2021/01/27 04:01:00;;;;;;;15.55;5.65;;;;;;;;;;5014819;28;20397;-66
2021/01/27 04:03:27;;;;;;;16.77;5.65;;;;;;;;;;5014827;28;20128;-66
2021/01/27 04:05:53;;;;;;;16.90;5.70;;;;;;;;;;4997107;28;20034;-66
2021/01/27 04:08:19;;;;;;;15.73;4.80;;;;;;;;;;4996672;28;20088;-65
2021/01/27 04:10:45;;;;;;;15.75;5.75;;;;;;;;;;5014488;28;20030;-66
2021/01/27 04:13:11;;;;;;;15.65;4.72;;;;;;;;;;5014548;28;20065;-65
2021/01/27 04:15:37;;;;;;;19.63;6.28;;;;;;;;;;5014643;28;20065;-65
2021/01/27 04:18:03;;;;;;;19.58;5.90;;;;;;;;;;4996637;28;20504;-65
2021/01/27 04:20:29;;;;;;;17.08;5.07;;;;;;;;;;5014078;28;20018;-65
2021/01/27 04:22:55;;;;;;;16.20;5.20;;;;;;;;;;5014485;28;20033;-66
2021/01/27 04:25:21;;;;;;;15.18;4.63;;;;;;;;;;5014504;28;20022;-66
2021/01/27 04:27:47;;;;;;;16.13;5.40;;;;;;;;;;4996393;28;20022;-65
2021/01/27 04:30:15;;;;;;;16.80;5.13;;;;;;;;;;5013802;28;20053;-65
2021/01/27 04:32:41;;;;;;;14.93;5.10;;;;;;;;;;4997108;28;20518;-65
2021/01/27 04:35:08;;;;;;;17.25;5.72;;;;;;;;;;4996053;28;20124;-66
2021/01/27 04:37:34;;;;;;;14.05;4.70;;;;;;;;;;5014157;28;20026;-65
2021/01/27 04:40:00;;;;;;;16.55;5.22;;;;;;;;;;5013800;28;20029;-65
2021/01/27 04:42:28;;;;;;;15.38;4.63;;;;;;;;;;4996648;28;20026;-65
2021/01/27 04:44:58;;;;;;;16.13;4.60;;;;;;;;;;4996630;28;20442;-66
2021/01/27 04:47:27;;;;;;;17.77;4.70;;;;;;;;;;5013987;28;20088;-66
2021/01/27 04:50:03;;;;;;;13.13;4.00;;;;;;;;;;5013193;28;20038;-66
2021/01/27 04:52:35;;;;;;;15.30;4.88;;;;;;;;;;5013721;28;20029;-66
2021/01/27 04:55:20;;;;;;;16.48;4.93;;;;;;;;;;5013666;28;20026;-66
2021/01/27 04:57:52;;;;;;;13.05;4.25;;;;;;;;;;4995654;28;20104;-66
2021/01/27 05:00:21;;;;;;;13.80;4.55;;;;;;;;;;5013104;28;20097;-66
2021/01/27 05:02:51;;;;;;;13.25;4.60;;;;;;;;;;5013540;28;20485;-66
2021/01/27 05:05:33;;;;;;;15.07;4.75;;;;;;;;;;5013262;28;20453;-67
2021/01/27 05:07:59;;;;;;;14.50;4.90;;;;;;;;;;5013389;28;20494;-64
2021/01/27 05:10:29;;;;;;;14.32;4.88;;;;;;;;;;5013132;28;20101;-66
2021/01/27 05:12:56;;;;;;;14.88;5.07;;;;;;;;;;5013296;28;20172;-66
2021/01/27 05:15:23;;;;;;;14.15;4.82;;;;;;;;;;5013574;28;20030;-66
2021/01/27 05:17:50;;;;;;;15.60;4.38;;;;;;;;;;5012907;28;20060;-67
2021/01/27 05:20:17;;;;;;;16.33;4.80;;;;;;;;;;4995243;28;20478;-67
2021/01/27 05:22:43;;;;;;;15.45;4.95;;;;;;;;;;4995672;28;20036;-66
2021/01/27 05:25:13;;;;;;;14.88;4.68;;;;;;;;;;5013264;28;20025;-66
2021/01/27 05:27:40;;;;;;;16.15;4.55;;;;;;;;;;4995413;28;20057;-67
2021/01/27 05:30:08;;;;;;;14.52;4.57;;;;;;;;;;4994983;28;20026;-66
2021/01/27 05:32:34;;;;;;;;;;;;;;;;;;4995504;28;20034;-67
2021/01/27 05:35:03;;;;;;;15.73;5.65;;;;;;;;;;5012783;28;19906;-66
2021/01/27 05:37:28;;;;;;;;;;;;;;;;;;4995335;28;20500;-66
2021/01/27 05:40:06;;;;;;;15.15;5.28;;;;;;;;;;5010794;28;19906;-66
2021/01/27 05:42:33;;;;;;;14.25;4.80;;;;;;;;;;5012666;28;20036;-66
2021/01/27 05:45:19;;;;;;;15.65;4.80;;;;;;;;;;5012779;28;20034;-67
2021/01/27 05:47:45;;;;;;;14.73;4.78;;;;;;;;;;5011905;28;20029;-65
2021/01/27 05:50:33;;;;;;;16.42;5.40;;;;;;;;;;4994643;28;20393;-66
2021/01/27 05:53:10;;;;;;;16.45;6.05;;;;;;;;;;5012701;28;20034;-66
2021/01/27 05:55:36;;;;;;;17.90;5.85;;;;;;;;;;5012750;28;20029;-66
2021/01/27 05:58:03;;;;;;;16.88;5.82;;;;;;;;;;4994333;28;20033;-66
2021/01/27 06:00:30;;;;;;;16.23;5.60;;;;;;;;;;5012063;28;20049;-66
2021/01/27 06:03:00;;;;;;;20.10;5.95;;;;;;;;;;5023374;23;20032;-65
2021/01/27 06:05:38;;;;;;;18.42;6.00;;;;;;;;;;5051346;28;20021;-65
2021/01/27 06:08:09;;;;;;;17.10;6.32;;;;;;;;;;5032966;28;20542;-65
2021/01/27 06:10:35;;;;;;;15.15;5.40;;;;;;;;;;5032987;28;20029;-63
2021/01/27 06:13:16;;;;;;;15.20;5.15;;;;;;;;;;5033196;28;20036;-66
2021/01/27 06:15:43;;;;;;;18.15;6.25;;;;;;;;;;5051078;28;20027;-63
2021/01/27 06:18:22;;;;;;;17.25;5.70;;;;;;;;;;5032594;28;20037;-64
2021/01/27 06:20:49;;;;;;;18.60;6.53;;;;;;;;;;5050711;28;20017;-63
2021/01/27 06:23:15;;;;;;;17.27;6.03;;;;;;;;;;5050662;28;20021;-65
2021/01/27 06:25:56;;;;;;;16.38;5.50;;;;;;;;;;5032892;28;20404;-65
2021/01/27 06:28:28;;;;;;;15.63;5.65;;;;;;;;;;5051056;28;20115;-65
2021/01/27 06:31:13;;;;;;;16.48;5.50;;;;;;;;;;5050786;28;20642;-63
2021/01/27 06:33:48;;;;;;;15.73;5.78;;;;;;;;;;5032676;28;20052;-63
2021/01/27 06:36:22;;;;;;;19.77;7.18;;;;;;;;;;5032831;28;20037;-64
2021/01/27 06:39:02;;;;;;;19.50;6.05;;;;;;;;;;5031838;28;20025;-65
2021/01/27 06:41:28;;;;;;;17.17;5.90;;;;;;;;;;5032635;28;20025;-63
2021/01/27 06:43:54;;;;;;;15.02;5.55;;;;;;;;;;5050431;28;20029;-64
2021/01/27 06:46:23;;;;;;;14.80;5.15;;;;;;;;;;5051154;28;20111;-64
2021/01/27 06:49:08;;;;;;;17.02;6.13;;;;;;;;;;5049959;28;20361;-64
2021/01/27 06:51:37;;;;;;;15.55;5.43;;;;;;;;;;5032255;28;20025;-65
2021/01/27 06:54:15;;;;;;;14.18;4.85;;;;;;;;;;5032326;28;20388;-65
2021/01/27 06:57:00;;;;;;;17.40;5.38;;;;;;;;;;5032269;28;20156;-64
2021/01/27 06:59:58;;;;;;;16.83;4.95;;;;;;;;;;5053429;28;20457;-64
2021/01/27 07:02:49;;;;;;;18.58;6.05;;;;;;;;;;5010394;28;20064;-63
2021/01/27 07:05:33;;;;;;;16.85;5.60;;;;;;;;;;5054289;28;20484;-63
2021/01/27 07:08:11;;;;;;;15.43;5.18;;;;;;;;;;5036053;28;20459;-64
2021/01/27 07:10:40;;;;;;;17.65;6.20;;;;;;;;;;5035695;28;20036;-63
2021/01/27 07:13:12;;;;;;;19.70;5.30;;;;;;;;;;5054157;28;20025;-63
2021/01/27 07:15:38;;;;;;;14.90;4.90;;;;;;;;;;5036167;28;20511;-62
2021/01/27 07:18:34;;;;;;;15.43;4.80;;;;;;;;;;5053874;28;20039;-64
2021/01/27 07:21:06;;;;;;;16.00;5.40;;;;;;;;;;4982578;28;20027;-62
2021/01/27 07:23:44;;;;;;;17.23;5.55;;;;;;;;;;5053820;28;20084;-62
2021/01/27 07:26:10;;;;;;;19.77;5.78;;;;;;;;;;5053896;28;20025;-65
2021/01/27 07:28:59;;;;;;;16.98;5.75;;;;;;;;;;5035595;28;20341;-64
2021/01/27 07:31:26;;;;;;;16.02;5.40;;;;;;;;;;5036208;28;20028;-62
2021/01/27 07:34:04;;;;;;;15.98;5.50;;;;;;;;;;5035648;28;20025;-64
2021/01/27 07:36:33;;;;;;;14.50;5.07;;;;;;;;;;5035728;28;20059;-62
2021/01/27 07:39:01;;;;;;;16.02;4.90;;;;;;;;;;5052954;28;20481;-64
2021/01/27 07:41:30;;;;;;;16.00;5.13;;;;;;;;;;5053349;28;20048;-64
2021/01/27 07:44:00;;;;;;;17.20;5.60;;;;;;;;;;5035373;28;20487;-64
2021/01/27 07:46:38;;;;;;;19.08;5.25;;;;;;;;;;5053310;28;20477;-63
2021/01/27 07:49:05;;;;;;;15.27;4.68;;;;;;;;;;5034884;28;20074;-63
2021/01/27 07:51:36;;;;;;;14.70;4.60;;;;;;;;;;5035533;28;20032;-64
2021/01/27 07:54:12;;;;;;;16.35;5.78;;;;;;;;;;5035594;28;20127;-64
2021/01/27 07:56:42;;;;;;;14.13;4.50;;;;;;;;;;5047540;28;20090;-63
2021/01/27 07:59:23;;;;;;;14.00;4.40;;;;;;;;;;5045521;28;20067;-63
2021/01/27 08:01:50;;;;;;;14.40;4.70;;;;;;;;;;5046586;28;20078;-63
2021/01/27 08:04:35;;;;;;;15.48;4.80;;;;;;;;;;5053326;28;20033;-63
2021/01/27 08:07:01;;;;;;;17.10;6.20;;;;;;;;;;5041599;28;20104;-63
2021/01/27 08:09:33;;;;;;;17.58;5.28;;;;;;;;;;5051392;28;20482;-64
2021/01/27 08:12:10;;;;;;;17.67;5.40;;;;;;;;;;5052470;28;20151;-63
2021/01/27 08:14:55;;;;;;;15.57;4.88;;;;;;;;;;5052945;28;20020;-63
2021/01/27 08:17:39;;;;;;;16.23;4.88;;;;;;;;;;5053232;28;20029;-63
2021/01/27 08:20:16;;;;;;;18.20;5.53;;;;;;;;;;5035029;28;20025;-61
2021/01/27 08:22:49;;;;;;;17.00;5.03;;;;;;;;;;5053340;28;20464;-64
2021/01/27 08:25:41;;;;;;;16.30;4.93;;;;;;;;;;5052832;28;20021;-63
2021/01/27 08:28:44;;;;;;;17.95;5.05;;;;;;;;;;5011507;28;20083;-63
2021/01/27 08:31:10;;;;;;;15.85;5.65;;;;;;;;;;5052582;28;20168;-64
2021/01/27 08:33:45;;;;;;;22.38;7.75;;;;;;;;;;5052588;28;20017;-64
2021/01/27 08:36:31;;;;;;;16.02;5.10;;;;;;;;;;5034608;28;20031;-63
2021/01/27 08:38:57;;;;;;;19.83;6.15;;;;;;;;;;5001688;28;20120;-65
2021/01/27 08:41:41;;;;;;;16.27;5.57;;;;;;;;;;5034091;28;20071;-64
2021/01/27 08:44:10;;;;;;;16.50;5.60;;;;;;;;;;5052318;28;20021;-63
2021/01/27 08:46:44;;;;;;;17.55;5.25;;;;;;;;;;5034355;28;20017;-63
2021/01/27 08:49:10;;;;;;;19.85;5.53;;;;;;;;;;5051627;28;20051;-63
2021/01/27 08:51:40;;;;;;;16.88;5.57;;;;;;;;;;5052341;28;20021;-63
2021/01/27 08:54:41;;;;;;;19.90;5.38;;;;;;;;;;5034605;28;20021;-64
2021/01/27 08:57:23;;;;;;;16.52;4.93;;;;;;;;;;4950840;29;20036;-63
2021/01/27 09:00:03;;;;;;;18.25;6.47;;;;;;;;;;5023197;28;20053;-64
2021/01/27 09:02:42;;;;;;;17.73;5.43;;;;;;;;;;5013819;28;20035;-63
2021/01/27 09:05:19;;;;;;;19.70;5.20;;;;;;;;;;5031497;28;20029;-64
2021/01/27 09:07:52;;;;;;;15.95;5.45;;;;;;;;;;5031512;28;20081;-64
2021/01/27 09:10:20;;;;;;;17.45;5.28;;;;;;;;;;5043241;28;20100;-64
2021/01/27 09:12:46;;;;;;;18.75;5.85;;;;;;;;;;5032722;28;20167;-60
2021/01/27 09:15:26;;;;;;;19.13;6.35;;;;;;;;;;5032926;28;20492;-60
2021/01/27 09:17:53;;;;;;;24.50;7.18;;;;;;;;;;5053099;28;20148;-62
2021/01/27 09:20:21;;;;;;;19.75;6.65;;;;;;;;;;5052810;28;20230;-60
2021/01/27 09:22:48;;;;;;;18.60;6.85;;;;;;;;;;5036069;28;20032;-62
2021/01/27 09:25:14;;;;;;;18.02;6.40;;;;;;;;;;5052772;28;20053;-61
2021/01/27 09:27:40;;;;;;;18.73;6.43;;;;;;;;;;5051946;28;20025;-60
2021/01/27 09:30:14;;;;;;;17.92;6.97;;;;;;;;;;5034310;28;20365;-62
2021/01/27 09:32:41;;;;;;;20.00;8.02;;;;;;;;;;5052382;28;20032;-59
2021/01/27 09:35:09;;;;;;;20.65;8.95;;;;;;;;;;5052034;28;20029;-60
2021/01/27 09:37:35;;;;;;;20.63;8.25;;;;;;;;;;5051250;28;20021;-61
2021/01/27 09:40:10;;;;;;;19.52;8.43;;;;;;;;;;5051493;28;20029;-61
2021/01/27 09:42:37;;;;;;;19.98;8.32;;;;;;;;;;5053100;28;20078;-62
2021/01/27 09:45:11;;;;;;;20.50;8.52;;;;;;;;;;5052577;28;20024;-61
2021/01/27 09:47:39;;;;;;;18.98;8.40;;;;;;;;;;5051303;28;20032;-63
2021/01/27 09:50:06;;;;;;;22.77;9.65;;;;;;;;;;5050408;28;20025;-63
2021/01/27 09:52:33;;;;;;;19.73;8.38;;;;;;;;;;5050650;28;20067;-61
2021/01/27 09:55:08;;;;;;;19.88;7.53;;;;;;;;;;5050502;28;20484;-62
2021/01/27 09:57:35;;;;;;;20.38;7.85;;;;;;;;;;5049930;28;20033;-63
2021/01/27 10:00:02;;;;;;;21.23;9.32;;;;;;;;;;5050024;28;20017;-64
2021/01/27 10:02:30;;;;;;;21.15;10.63;;;;;;;;;;5050674;28;20087;-64
2021/01/27 10:04:56;;;;;;;24.25;11.10;;;;;;;;;;5051241;28;20097;-65
2021/01/27 10:07:24;;;;;;;23.23;10.65;;;;;;;;;;5051380;28;20029;-64
2021/01/27 10:09:57;;;;;;;22.45;10.70;;;;;;;;;;5050439;28;20031;-63
2021/01/27 10:12:25;;;;;;;21.98;10.85;;;;;;;;;;5049175;28;20044;-62
2021/01/27 10:14:59;;;;;;;23.83;11.10;;;;;;;;;;5031766;28;20025;-63
2021/01/27 10:17:27;;;;;;;20.95;10.70;;;;;;;;;;5049253;28;20085;-62
2021/01/27 10:20:01;;;;;;;20.55;10.50;;;;;;;;;;5048408;28;20055;-64
2021/01/27 10:22:28;;;;;;;21.85;10.95;;;;;;;;;;5049707;28;20025;-64
2021/01/27 10:25:00;;;;;;;21.67;10.68;;;;;;;;;;5050028;28;20399;-64
2021/01/27 10:27:40;;;;;;;21.45;10.10;;;;;;;;;;5049982;28;20060;-62
2021/01/27 10:30:15;;;;;;;23.83;11.75;;;;;;;;;;5031906;28;20488;-61
2021/01/27 10:32:43;;;;;;;22.35;10.13;;;;;;;;;;5031729;28;20784;-64
2021/01/27 10:35:29;;;;;;;27.35;11.40;;;;;;;;;;5050071;28;20052;-63
2021/01/27 10:38:01;;;;;;;21.92;10.63;;;;;;;;;;5050398;28;20031;-64
2021/01/27 10:40:34;;;;;;;21.67;10.20;;;;;;;;;;5031357;28;20408;-62
2021/01/27 10:43:23;;;;;;;21.40;10.30;;;;;;;;;;5031894;28;20028;-64
2021/01/27 10:45:49;;;;;;;21.23;9.60;;;;;;;;;;5049765;28;20443;-64
2021/01/27 10:48:21;;;;;;;20.00;9.48;;;;;;;;;;5049874;28;20103;-63
2021/01/27 10:50:50;;;;;;;20.42;9.60;;;;;;;;;;5049739;28;20043;-65
2021/01/27 10:53:18;;;;;;;21.75;9.93;;;;;;;;;;5049389;28;20082;-63
2021/01/27 10:55:53;;;;;;;20.17;9.75;;;;;;;;;;5049164;28;20033;-63
2021/01/27 10:58:19;;;;;;;20.13;10.20;;;;;;;;;;5045699;28;20100;-61
2021/01/27 11:00:46;;;;;;;21.55;9.45;;;;;;;;;;5013613;28;20112;-65
2021/01/27 11:03:17;;;;;;;20.20;9.20;;;;;;;;;;5029776;28;20045;-62
2021/01/27 11:05:43;;;;;;;20.80;9.57;;;;;;;;;;5029758;28;20422;-62
2021/01/27 11:08:13;;;;;;;19.23;9.27;;;;;;;;;;5029923;28;20037;-63
2021/01/27 11:10:39;;;;;;;21.00;9.52;;;;;;;;;;4685610;28;10000492;-63
2021/01/27 11:13:05;;;;;;;21.35;10.25;;;;;;;;;;5034371;28;20033;-63
2021/01/27 11:15:31;;;;;;;20.55;9.75;;;;;;;;;;5014155;28;20484;-63
2021/01/27 11:17:57;;;;;;;19.35;9.25;;;;;;;;;;5008727;28;20030;-62
2021/01/27 11:20:24;;;;;;;20.75;10.18;;;;;;;;;;5008435;28;20448;-61
2021/01/27 11:22:51;;;;;;;23.85;11.43;;;;;;;;;;5008255;28;20028;-64
2021/01/27 11:25:19;;;;;;;22.00;11.18;;;8.20;99.90;;;;;;5008178;28;20026;-63
2021/01/27 11:27:45;;;;;;;21.25;9.80;;;2.80;99.90;;;;;;5011273;28;20095;-64
2021/01/27 11:30:13;;;;;;;20.58;9.85;;;2.60;99.90;;;;;;5016260;28;20033;-65
2021/01/27 11:32:39;;;;;;;23.52;10.88;;;2.60;99.90;;;;;;5016446;28;20029;-63
2021/01/27 11:35:05;;;;;;;22.60;12.13;;;2.70;99.90;;;;;;5014697;28;20044;-65
2021/01/27 11:37:31;;;;;;;24.10;12.40;;;2.70;99.90;;;;;;5034515;28;20477;-64
2021/01/27 11:39:58;;;;;;;22.17;11.02;;;2.70;99.90;;;;;;5021040;28;20075;-64
2021/01/27 11:42:23;;;;;;;23.38;10.57;;;2.70;99.90;;;;;;5022148;28;20032;-64
2021/01/27 11:44:49;;;;;;;22.80;12.15;;;2.70;99.90;;;;;;5017560;28;20124;-63
2021/01/27 11:47:15;;;;;;;20.77;10.82;;;2.80;99.90;;;;;;5037434;28;20035;-65
2021/01/27 11:49:44;;;;;;;20.80;11.30;;;;;;;;;;5021494;28;20092;-64
2021/01/27 11:52:10;;;;;;;20.92;10.60;;;;;;;;;;5040676;28;20096;-65
2021/01/27 11:54:39;;;;;;;21.30;10.95;;;;;;;;;;5019542;28;20752;-64
2021/01/27 11:57:06;;;;;;;19.75;9.80;;;;;;;;;;5039494;28;20025;-62
2021/01/27 11:59:33;;;;;;;20.95;10.32;;;;;;;;;;5021377;28;20679;-63
2021/01/27 12:02:00;;;;;;;20.25;10.50;;;;;;;;;;5040316;28;20528;-60
2021/01/27 12:04:26;;;;;;;21.13;10.55;;;;;;;;;;5040426;23;20099;-57
2021/01/27 12:06:52;;;;;;;21.38;11.38;;;;;;;;;;5001718;28;20034;-57
2021/01/27 12:09:18;;;;;;;20.15;10.27;;;;;;;;;;5009590;28;20034;-56
2021/01/27 12:11:44;;;;;;;23.30;13.13;;;;;;;;;;5020215;28;20452;-59
2021/01/27 12:14:10;;;;;;;25.50;11.27;;;;;;;;;;5002381;28;20029;-58
2021/01/27 12:16:36;;;;;;;19.88;10.15;;;;;;;;;;5003737;28;20080;-58
2021/01/27 12:19:02;;;;;;;20.60;10.48;;;;;;;;;;5001159;28;20018;-59
2021/01/27 12:21:30;;;;;;;22.20;11.90;;;;;;;;;;5020434;28;20028;-57
2021/01/27 12:23:56;;;;;;;21.17;10.35;;;;;;;;;;5002891;28;20049;-54
2021/01/27 12:26:22;;;;;;;22.83;12.10;;;;;;;;;;5021034;28;20049;-57
2021/01/27 12:28:49;;;;;;;20.17;10.95;;;;;;;;;;5020943;28;20080;-58
2021/01/27 12:31:15;;;;;;;20.02;10.85;;;;;;;;;;5030323;28;20088;-52
2021/01/27 12:33:41;;;;;;;25.50;11.88;;;;;;;;;;5011749;28;20497;-57
2021/01/27 12:36:07;;;;;;;21.33;11.63;;;;;;;;;;5004133;28;20029;-59
2021/01/27 12:38:33;;;;;;;22.52;11.75;;;;;;;;;;5022407;28;20026;-55
2021/01/27 12:41:01;;;;;;;22.52;12.35;;;;;;;;;;5016724;28;20030;-56
2021/01/27 12:43:27;;;;;;;22.87;12.77;;;;;;;;;;5013775;28;20026;-60
2021/01/27 12:45:53;;;;;;;21.33;11.40;;;;;;;;;;5009465;28;20026;-58
2021/01/27 12:48:19;;;;;;;24.30;13.10;;;;;;;;;;5013743;28;20506;-58
2021/01/27 12:50:45;;;;;;;23.27;13.40;;;;;;;;;;5030061;28;20033;-57
2021/01/27 12:53:11;;;;;;;22.40;12.73;;;;;;;;;;4994718;28;20026;-58
2021/01/27 12:55:37;;;;;;;29.10;13.18;;;;;;;;;;4996931;28;20551;-59
2021/01/27 12:58:03;;;;;;;23.42;12.73;;;;;;;;;;5013865;28;20033;-58
2021/01/27 13:00:30;;;;;;;23.20;12.77;;;;;;;;;;5014097;28;20411;-58
2021/01/27 13:02:56;;;;;;;23.70;13.48;;;;;;;;;;5014622;28;20064;-59
2021/01/27 13:05:25;;;;;;;24.25;12.57;;;;;;;;;;5032624;28;20029;-57
2021/01/27 13:07:52;;;;;;;24.20;12.77;;;;;;;;;;5033015;28;20025;-58
2021/01/27 13:10:18;;;;;;;23.05;13.27;;;;;;;;;;5014508;28;20105;-59
2021/01/27 13:12:45;;;;;;;23.40;12.85;;;;;;;;;;5032825;28;20049;-58
2021/01/27 13:15:12;;;;;;;22.38;12.95;;;;;;;;;;5033335;28;20109;-61
2021/01/27 13:17:39;;;;;;;23.27;12.73;;;;;;;;;;5014195;28;20113;-57
2021/01/27 13:20:09;;;;;;;23.23;12.15;;;;;;;;;;5032254;28;20432;-56
2021/01/27 13:22:34;;;;;;;23.13;12.65;;;;;;;;;;5032899;28;20086;-60
2021/01/27 13:25:01;;;;;;;22.48;12.63;;;;;;;;;;5032611;28;20493;-59
2021/01/27 13:27:27;;;;;;;24.38;13.32;;;;;;;;;;5032433;28;20051;-60
2021/01/27 13:29:53;;;;;;;23.67;12.98;;;;;;;;;;5013689;28;20033;-49
2021/01/27 13:32:19;;;;;;;22.58;12.55;;;;;;;;;;5014531;28;20021;-60
2021/01/27 13:34:45;;;;;;;22.90;12.45;;;;;;;;;;5032495;28;20388;-61
2021/01/27 13:37:15;;;;;;;23.85;12.43;;;;;;;;;;5014711;28;20032;-54
2021/01/27 13:39:41;;;;;;;25.50;12.57;;;;;;;;;;5013636;28;20053;-57
2021/01/27 13:42:07;;;;;;;24.55;13.25;;;;;;;;;;5032045;28;20549;-57
2021/01/27 13:44:34;;;;;;;25.52;13.07;;;;;;;;;;5032466;28;20389;-58
2021/01/27 13:47:00;;;;;;;25.85;13.25;;;;;;;;;;5031609;28;20048;-59
2021/01/27 13:49:26;;;;;;;24.80;13.98;;;;;;;;;;5013385;28;20443;-55
2021/01/27 13:51:52;;;;;;;24.13;13.63;;;;;;;;;;5032124;28;20029;-57
2021/01/27 13:54:18;;;;;;;23.50;12.88;;;;;;;;;;5014433;28;20033;-59
2021/01/27 13:56:44;;;;;;;24.92;13.30;;;;;;;;;;5014750;28;20500;-59
2021/01/27 13:59:10;;;;;;;28.17;15.32;;;;;;;;;;5014289;28;20094;-56
2021/01/27 14:01:37;;;;;;;28.52;14.93;;;;;;;;;;5013479;28;20033;-56
2021/01/27 14:04:03;;;;;;;24.88;14.18;;;;;;;;;;5031638;28;20032;-55
2021/01/27 14:06:29;;;;;;;25.85;15.43;;;;;;;;;;5014048;28;20098;-57
2021/01/27 14:08:55;;;;;;;31.73;16.65;;;;;;;;;;5030316;28;20556;-60
2021/01/27 14:11:21;;;;;;;25.65;15.10;;;;;;;;;;5031678;28;20126;-59
2021/01/27 14:13:47;;;;;;;26.02;15.30;;;;;;;;;;5031938;28;20052;-56
2021/01/27 14:16:13;;;;;;;25.40;14.23;;;;;;;;;;5031397;28;20018;-56
2021/01/27 14:18:39;;;;;;;28.98;16.02;;;;;;;;;;5013416;28;20022;-54
2021/01/27 14:21:05;;;;;;;25.42;14.07;;;;;;;;;;5031757;28;20028;-59
2021/01/27 14:23:31;;;;;;;26.00;15.15;;;;;;;;;;5013880;28;20500;-57
2021/01/27 14:25:57;;;;;;;28.65;15.73;;;;;;;;;;5014108;28;20026;-57
2021/01/27 14:28:23;;;;;;;24.23;13.70;;;;;;;;;;5013440;28;20025;-60
2021/01/27 14:30:49;;;;;;;25.77;15.05;;;;;;;;;;5013095;28;20021;-58
2021/01/27 14:33:16;;;;;;;29.08;14.30;;;;;;;;;;5013768;28;20460;-57
2021/01/27 14:35:42;;;;;;;28.08;15.63;;;;;;;;;;5007090;28;20497;-57
2021/01/27 14:38:08;;;;;;;24.35;12.75;;;;;;;;;;5011370;28;20038;-55
2021/01/27 14:40:35;;;;;;;25.20;12.95;;;;;;;;;;5010822;28;20117;-56